Ray, Illinois
Current Conditions -  °F | °C
As of 4:55 AM on Sunday 23 Nov 2014 (Local Time) from KMQB Reporting Station
Clear Clear  
Wind Chill: 43°   Ceiling: Unl
Heat Index: 47°   Visibility: 7mi
Dew Point: 46°   Wind: 9mph
Humidity: 95%   Direction: 160°SSE
Pressure: 29.71"   Gusts: NA
Location:  40.1451°N, 90.5648°W
Report Text: KMQB 231055Z AUTO 16008KT 7SM CLR 09/08 A2971 RMK AO2 T00850078
Loading
Personal Weather Stations






























Interactive Weather Map New forecast layout! Learn more

10-Day Weather Forecast

Advertisements
Track Severe Weather on mobile